Bryce Canyon, UT

12:51 PM MDT on August 22, 2014 (GMT -0600)
Bryce Canyon | Change Station
CLOSE
Current Station
Airport
Location: Bryce Canyon,
Elevation: 7585 ft
Nearby Weather Stations

Elev 7585 ft 37.71 °N, 112.15 °W | Updated 58 minutes ago

Overcast
Overcast
60 °F
Feels Like 60 °F
N
10
Wind Variable Wind from SSE

Today
High -- | Low -- °F
--% Chance of Precip.
Yesterday
High -- | Low -- °F
Precip. -- in
6:50 AM 8:11 PM
Waning Crescent, 7% visible
Pressure 29.97 in
Visibility 10.0 miles
Clouds Overcast 6500 ft
Dew Point 48 °F
Humidity 64%
Rainfall 0.00 in
Snow Depth 3 in
UV 3 out of 12
Pollen 6.90 out of 12
Air Quality Not available.
Flu Activity Not available.
METAR KBCE 221753Z AUTO 15009KT 10SM OVC065 16/09 A3026 RMK AO2 SLP147 T01560089 10161 20067 56006

More Conditions Fewer Conditions

Pressure 29.97 in
Visibility 10.0 miles
Clouds Overcast 6500 ft
Dew Point 48 °F
Humidity 64%
Rainfall 0.00 in
Snow Depth 3 in
UV 3 out of 12
Pollen 6.90 out of 12
Air Quality Not available.
Flu Activity Not available.
METAR KBCE 221753Z AUTO 15009KT 10SM OVC065 16/09 A3026 RMK AO2 SLP147 T01560089 10161 20067 56006

More Conditions Fewer Conditions

10-Day Weather Forecast

Almanac

Astronomy

Aug. 22, 2014 Rise Set
Actual Time 6:50 AM MDT 8:11 PM MDT
Civil Twilight 6:22 AM MDT 8:39 PM MDT
Nautical Twilight 5:50 AM MDT 9:11 PM MDT
Astronomical Twilight 5:15 AM MDT 9:46 PM MDT
Moon 4:17 AM MDT 6:21 PM MDT
Length of Visible Light 14h 16m
Length of Day
13h 21m
Tomorrow will be 2m 15s shorter.
Waning Crescent, 7% of the Moon is Illuminated
Today
Waning Crescent
Aug 25
New
Sep 2
First Quarter
Sep 8
Full
Sep 15
Last Quarter

Today's Extremes

State Highs State Lows

Community

WunderPhotos

Upload Photos

1,746,216 photos uploaded!

Nearby

Snow Depth

Station Depth Elevation
Agua Canyon 3 in 8900 ft
Long Valley Jct 0 in 7360 ft
Midway Valley 3 in 9800 ft
Gooseberry R.S. 0 in 7920 ft
Seeley Creek 0 in 10000 ft

Earthquake Activity

City Distance Mag. Time & Date
No recent earthquake activity has been reported nearby.
Minimum magnitude displayed is 2.5.

Coastal Water Temperatures

Place Temperature
No Stations Reporting

Nearby Weather Stations